In Rescue
 
Open Full Screen Window  High Contrast Mode
March 20, 2019 8:40 PM CDT
Weather Information
Wind Direction
  ---
Wind Speed
  00 kt (0 mph)
Wind Gust
  00 kt (0 mph)
Altimeter
30.05 in
Visibility
10 SM
Temperature
02° C
36° F
Dewpoint
-02° C
28° F
Humidity
75%
1hr Rain Fall
00.00 in.
24hr Rain Fall
00.00 in.
Sky Condition
Overcast @ 3,500 ft
VFR

METAR KELO 210140Z AUTO 00000KT 10SM OVC035 02/M02 A3005 RMK AO2

FAA Disclaimer: The data displayed is for advisory purposes only and is not to be used for flight planning or operations.